TimePST,TemperatureF,Dew PointF,Humidity,Sea Level PressureIn,VisibilityMPH,Wind Direction,Wind SpeedMPH,Gust SpeedMPH,PrecipitationIn,Events,Conditions,WindDirDegrees,DateUTC
12:11 AM,19.4,19.4,100,30.16,1.0,Calm,Calm,-,N/A,,Overcast,0,2013-01-07 08:11:00
12:53 AM,19.9,19.0,96,30.26,0.8,Calm,Calm,-,N/A,,Mist,0,2013-01-07 08:53:00
1:53 AM,21.0,18.0,88,30.25,0.5,Calm,Calm,-,N/A,Fog,Light Freezing Fog,0,2013-01-07 09:53:00
2:53 AM,21.9,19.0,89,30.24,0.2,Calm,Calm,-,N/A,Fog,Light Freezing Fog,0,2013-01-07 10:53:00
3:53 AM,23.0,19.9,88,30.25,0.8,West,3.5,-,N/A,,Mist,270,2013-01-07 11:53:00
4:17 AM,24.8,19.4,80,30.13,0.8,Calm,Calm,-,0.00,Snow,Light Snow,0,2013-01-07 12:17:00
4:43 AM,23.0,19.4,86,30.12,0.8,Calm,Calm,-,0.03,Snow,Light Snow,0,2013-01-07 12:43:00
4:53 AM,23.0,19.9,88,30.23,1.0,Calm,Calm,-,0.04,Snow,Light Snow,0,2013-01-07 12:53:00
5:15 AM,23.0,19.4,86,30.11,1.0,SE,3.5,-,0.01,Snow,Light Snow,130,2013-01-07 13:15:00
5:41 AM,23.0,19.4,86,30.11,2.0,Calm,Calm,-,0.02,Snow,Light Snow,0,2013-01-07 13:41:00
5:53 AM,23.0,19.9,88,30.25,2.0,Calm,Calm,-,0.03,Snow,Light Snow,0,2013-01-07 13:53:00
6:16 AM,23.0,19.4,86,30.13,4.0,Calm,Calm,-,0.00,Snow,Light Snow,0,2013-01-07 14:16:00
6:27 AM,23.0,19.4,86,30.13,2.0,Calm,Calm,-,0.00,Snow,Light Snow,0,2013-01-07 14:27:00
6:50 AM,23.0,19.4,86,30.12,4.0,Calm,Calm,-,0.01,Snow,Light Snow,0,2013-01-07 14:50:00
6:53 AM,23.0,19.9,88,30.27,4.0,Calm,Calm,-,0.01,Snow,Light Snow,0,2013-01-07 14:53:00
7:53 AM,24.1,19.9,84,30.25,5.0,Calm,Calm,-,0.00,,Overcast,0,2013-01-07 15:53:00
8:10 AM,24.8,21.2,86,30.11,8.0,Calm,Calm,-,N/A,,Overcast,0,2013-01-07 16:10:00
8:53 AM,24.1,21.0,88,30.24,8.0,Calm,Calm,-,N/A,,Overcast,0,2013-01-07 16:53:00
9:51 AM,24.8,21.2,86,30.11,10.0,Calm,Calm,-,N/A,,Overcast,0,2013-01-07 17:51:00
9:53 AM,24.1,21.9,91,30.23,10.0,Calm,Calm,-,N/A,,Overcast,0,2013-01-07 17:53:00
10:53 AM,25.0,23.0,92,30.24,10.0,Calm,Calm,-,N/A,,Overcast,0,2013-01-07 18:53:00
11:43 AM,26.6,24.8,93,30.12,2.0,Calm,Calm,-,0.00,,Overcast,0,2013-01-07 19:43:00
11:53 AM,26.1,25.0,96,30.22,3.0,Calm,Calm,-,0.00,,Overcast,0,2013-01-07 19:53:00
12:53 PM,27.0,25.0,92,30.19,10.0,South,4.6,-,N/A,,Overcast,180,2013-01-07 20:53:00
1:18 PM,26.6,24.8,93,30.10,10.0,Calm,Calm,-,N/A,,Overcast,0,2013-01-07 21:18:00
1:53 PM,28.0,26.1,92,30.20,10.0,Calm,Calm,-,N/A,,Overcast,0,2013-01-07 21:53:00
2:01 PM,28.4,26.6,93,30.10,10.0,Calm,Calm,-,N/A,,Overcast,0,2013-01-07 22:01:00
2:15 PM,28.4,26.6,93,30.09,10.0,South,3.5,-,N/A,,Overcast,190,2013-01-07 22:15:00
2:42 PM,30.2,26.6,86,30.10,10.0,Calm,Calm,-,N/A,,Overcast,0,2013-01-07 22:42:00
2:53 PM,30.9,26.1,82,30.19,10.0,Calm,Calm,-,N/A,,Overcast,0,2013-01-07 22:53:00
3:53 PM,30.9,26.1,82,30.20,10.0,Calm,Calm,-,N/A,,Overcast,0,2013-01-07 23:53:00
4:05 PM,30.2,26.6,86,30.11,10.0,Calm,Calm,-,N/A,,Overcast,0,2013-01-08 00:05:00
4:53 PM,23.0,21.9,96,30.23,4.0,Calm,Calm,-,N/A,,Clear,0,2013-01-08 00:53:00
5:04 PM,23.0,21.2,93,30.11,2.5,Calm,Calm,-,N/A,,Clear,0,2013-01-08 01:04:00
5:11 PM,23.0,21.2,93,30.10,1.2,Calm,Calm,-,N/A,,Clear,0,2013-01-08 01:11:00
5:19 PM,21.2,19.4,93,30.11,0.5,SW,3.5,-,N/A,Fog,Light Freezing Fog,230,2013-01-08 01:19:00
5:41 PM,19.4,17.6,93,30.12,0.5,West,4.6,-,N/A,Fog,Light Freezing Fog,280,2013-01-08 01:41:00
5:53 PM,19.0,17.1,92,30.25,0.8,West,6.9,-,N/A,,Mist,270,2013-01-08 01:53:00
6:46 PM,17.6,17.6,100,30.12,0.5,Calm,Calm,-,N/A,Fog,Light Freezing Fog,0,2013-01-08 02:46:00
6:53 PM,18.0,17.1,96,30.25,0.8,WNW,3.5,-,N/A,,Mist,300,2013-01-08 02:53:00
6:58 PM,17.6,15.8,93,30.12,1.5,Calm,Calm,-,N/A,,Scattered Clouds,0,2013-01-08 02:58:00
7:02 PM,17.6,17.6,100,30.13,3.0,WNW,3.5,-,N/A,,Scattered Clouds,290,2013-01-08 03:02:00
7:53 PM,24.1,21.9,91,30.22,10.0,SSW,3.5,-,N/A,,Overcast,200,2013-01-08 03:53:00
8:53 PM,21.0,19.0,92,30.24,10.0,Calm,Calm,-,N/A,,Mostly Cloudy,0,2013-01-08 04:53:00
9:53 PM,23.0,21.0,92,30.24,10.0,Calm,Calm,-,N/A,,Overcast,0,2013-01-08 05:53:00
10:16 PM,23.0,21.2,93,30.14,10.0,Calm,Calm,-,N/A,,Overcast,0,2013-01-08 06:16:00
10:53 PM,24.1,21.9,91,30.25,10.0,NE,4.6,-,N/A,,Overcast,40,2013-01-08 06:53:00
11:53 PM,26.1,24.1,92,30.26,9.0,ENE,3.5,-,N/A,,Overcast,60,2013-01-08 07:53:00